Time;durP1;ratioP1;P1;durP2;ratioP2;P2;SDS_P1;SDS_P2;PMS_P1;PMS_P2;Temp;Humidity;BMP_temperature;BMP_pressure;BME280_temperature;BME280_humidity;BME280_pressure;Samples;Min_cycle;Max_cycle;Signal;HPM_P1;HPM_P2
2023/09/08 00:01:18;;;;;;;4.45;3.45;;;;;;;15.59;92.49;101490.59;5107237;28;20027;-75
2023/09/08 00:03:43;;;;;;;4.68;3.47;;;;;;;15.59;92.60;101492.38;5107505;28;20016;-75
2023/09/08 00:06:08;;;;;;;7.97;3.63;;;;;;;15.56;92.42;101493.25;5107047;28;20375;-75
2023/09/08 00:08:34;;;;;;;7.32;3.13;;;;;;;15.56;92.61;101488.03;5107181;28;20043;-74
2023/09/08 00:10:59;;;;;;;4.28;2.95;;;;;;;15.52;92.91;101481.09;5106769;28;20030;-74
2023/09/08 00:13:24;;;;;;;6.03;3.50;;;;;;;15.48;92.70;101482.00;5107273;28;20069;-75
2023/09/08 00:15:50;;;;;;;4.65;3.10;;;;;;;15.51;93.02;101495.06;5106992;28;20024;-74
2023/09/08 00:18:15;;;;;;;4.10;2.80;;;;;;;15.46;93.08;101492.50;5106998;28;20034;-75
2023/09/08 00:20:41;;;;;;;3.42;2.35;;;;;;;15.48;93.24;101495.97;5106747;28;20106;-74
2023/09/08 00:23:07;;;;;;;5.47;2.60;;;;;;;15.44;93.38;101496.03;5088370;28;20080;-75
2023/09/08 00:25:34;;;;;;;5.43;3.72;;;;;;;15.41;93.31;101494.31;5106538;28;20078;-73
2023/09/08 00:27:59;;;;;;;7.47;3.25;;;;;;;15.41;93.50;101496.06;5088343;28;20031;-75
2023/09/08 00:30:25;;;;;;;9.13;3.47;;;;;;;15.38;93.41;101493.47;5105300;28;20099;-75
2023/09/08 00:32:50;;;;;;;4.45;3.28;;;;;;;15.38;93.30;101499.59;5105635;28;20020;-75
2023/09/08 00:35:16;;;;;;;19.75;4.57;;;;;;;15.33;93.44;101491.78;5106553;28;20091;-74
2023/09/08 00:37:41;;;;;;;5.28;2.95;;;;;;;15.31;93.70;101488.31;5088362;28;20108;-76
2023/09/08 00:40:08;;;;;;;6.38;3.67;;;;;;;15.30;93.63;101493.56;5106401;28;20084;-75
2023/09/08 00:42:34;;;;;;;9.80;3.30;;;;;;;15.30;93.54;101486.59;5088236;28;20028;-74
2023/09/08 00:44:59;;;;;;;4.70;3.50;;;;;;;15.27;93.94;101480.53;5106379;28;20016;-74
2023/09/08 00:47:24;;;;;;;5.18;2.97;;;;;;;15.23;94.00;101485.78;5106189;28;20051;-75
2023/09/08 00:49:51;;;;;;;4.47;3.10;;;;;;;15.20;94.19;101485.81;5106389;28;20076;-74
2023/09/08 00:52:17;;;;;;;5.05;3.83;;;;;;;15.18;94.29;101479.72;5106398;28;20109;-75
2023/09/08 00:54:42;;;;;;;4.80;4.30;;;;;;;15.24;94.78;101491.88;5106235;28;20085;-75
2023/09/08 00:57:09;;;;;;;4.20;3.80;;;;;;;15.21;94.44;101481.44;5087636;28;20028;-74
2023/09/08 00:59:35;;;;;;;3.85;2.95;;;;;;;15.22;94.46;101485.81;5106171;28;20042;-74
2023/09/08 01:02:02;;;;;;;7.00;3.10;;;;;;;15.18;94.59;101476.25;5106001;28;20035;-75
2023/09/08 01:04:28;;;;;;;4.68;3.35;;;;;;;15.21;94.79;101479.69;5105958;28;20061;-75
2023/09/08 01:06:55;;;;;;;6.88;3.13;;;;;;;15.16;94.73;101483.25;5105997;28;20093;-75
2023/09/08 01:09:21;;;;;;;7.97;4.22;;;;;;;15.14;95.23;101487.63;5087675;28;20106;-76
2023/09/08 01:11:47;;;;;;;3.58;2.38;;;;;;;15.09;95.48;101483.31;5106079;28;20055;-75
2023/09/08 01:14:13;;;;;;;3.80;3.30;;;;;;;15.08;95.23;101485.94;5106044;28;20484;-74
2023/09/08 01:16:40;;;;;;;5.00;3.58;;;;;;;15.04;95.59;101482.50;5105763;28;20023;-75
2023/09/08 01:19:10;;;;;;;5.72;4.47;;;;;;;15.05;95.62;101492.06;5105784;28;20023;-75
2023/09/08 01:21:38;;;;;;;8.45;3.50;;;;;;;15.03;95.53;101485.97;5105707;28;20024;-75
2023/09/08 01:24:16;;;;;;;10.70;4.15;;;;;;;15.02;95.91;101486.84;5087331;28;20020;-74
2023/09/08 01:26:41;;;;;;;3.97;3.08;;;;;;;14.97;95.66;101483.41;5105631;28;20088;-74
2023/09/08 01:29:09;;;;;;;6.22;3.45;;;;;;;14.97;95.64;101488.66;5086939;28;20034;-75
2023/09/08 01:31:35;;;;;;;4.13;3.60;;;;;;;14.94;96.03;101484.31;5105525;28;20016;-75
2023/09/08 01:34:06;;;;;;;8.18;4.35;;;;;;;14.94;96.21;101480.84;5105404;28;20027;-74
2023/09/08 01:36:32;;;;;;;5.17;3.63;;;;;;;14.92;95.93;101480.84;5105540;28;20013;-74
2023/09/08 01:38:57;;;;;;;5.68;3.78;;;;;;;14.93;96.51;101481.72;5105688;28;20032;-74
2023/09/08 01:41:22;;;;;;;6.22;3.28;;;;;;;14.90;96.45;101480.03;5105217;28;20027;-74
2023/09/08 01:43:48;;;;;;;3.60;3.08;;;;;;;14.91;96.49;101479.13;5105032;28;20514;-75
2023/09/08 01:46:13;;;;;;;7.03;4.00;;;;;;;14.91;96.47;101484.34;5086706;28;20016;-74
2023/09/08 01:48:38;;;;;;;7.22;4.25;;;;;;;14.89;96.99;101482.66;5105307;28;20072;-74
2023/09/08 01:51:05;;;;;;;6.10;4.30;;;;;;;14.87;96.81;101482.66;5105158;28;20558;-75
2023/09/08 01:53:30;;;;;;;6.00;4.15;;;;;;;14.81;96.87;101483.56;5105103;28;20044;-74
2023/09/08 01:55:55;;;;;;;6.55;3.17;;;;;;;14.75;97.34;101467.91;5104902;28;20032;-74
2023/09/08 01:58:21;;;;;;;4.63;3.72;;;;;;;14.81;97.45;101477.50;5105134;28;20020;-74
2023/09/08 02:00:51;;;;;;;5.18;3.95;;;;;;;14.74;97.48;101467.03;5105101;28;20043;-74
2023/09/08 02:03:16;;;;;;;5.28;4.78;;;;;;;14.76;97.63;101472.25;5105012;28;20031;-75
2023/09/08 02:05:42;;;;;;;6.85;3.25;;;;;;;14.72;97.81;101475.78;5104546;28;20020;-74
2023/09/08 02:08:07;;;;;;;5.45;4.85;;;;;;;14.70;97.99;101464.47;5103554;28;20020;-74
2023/09/08 02:10:32;;;;;;;5.65;4.22;;;;;;;14.72;97.89;101478.38;5104679;28;20055;-75
2023/09/08 02:12:58;;;;;;;7.28;4.15;;;;;;;14.70;98.40;101467.94;5104496;28;20020;-74
2023/09/08 02:15:23;;;;;;;2.80;2.47;;;;;;;14.69;98.58;101468.84;5104730;28;20029;-74
2023/09/08 02:17:53;;;;;;;6.05;4.07;;;;;;;14.69;98.74;101471.44;5104844;28;20031;-73
2023/09/08 02:20:19;;;;;;;5.85;5.13;;;;;;;14.65;98.72;101461.88;5104721;28;20024;-74
2023/09/08 02:22:44;;;;;;;9.40;3.65;;;;;;;14.68;98.88;101466.25;5104831;28;20028;-72
2023/09/08 02:25:09;;;;;;;6.05;4.00;;;;;;;14.70;99.14;101454.00;5104386;28;20084;-72
2023/09/08 02:27:36;;;;;;;4.80;4.30;;;;;;;14.70;99.30;101459.22;5103069;28;20045;-72
2023/09/08 02:30:01;;;;;;;4.65;3.33;;;;;;;14.68;99.42;101453.16;5086408;28;20396;-71
2023/09/08 02:32:26;;;;;;;7.15;3.90;;;;;;;14.73;99.47;101448.75;5104177;28;20526;-71
2023/09/08 02:34:52;;;;;;;12.10;4.07;;;;;;;14.75;99.50;101452.22;5085924;28;20051;-70
2023/09/08 02:37:18;;;;;;;7.45;2.85;;;;;;;14.71;99.72;101443.53;5104429;28;20031;-68
2023/09/08 02:39:44;;;;;;;18.83;3.55;;;;;;;14.69;100.00;101447.94;5104629;28;20012;-69
2023/09/08 02:42:10;;;;;;;6.82;3.45;;;;;;;14.73;100.00;101451.34;5104114;28;20586;-69
2023/09/08 02:44:35;;;;;;;4.57;2.75;;;;;;;14.70;100.00;101452.25;5085792;28;20030;-68
2023/09/08 02:47:00;;;;;;;16.50;4.20;;;;;;;14.69;100.00;101441.81;5104234;28;20020;-69
2023/09/08 02:49:26;;;;;;;15.20;3.67;;;;;;;14.72;100.00;101447.03;5102682;28;20026;-69
2023/09/08 02:51:51;;;;;;;29.42;4.05;;;;;;;14.73;100.00;101444.41;5104534;28;20028;-68
2023/09/08 02:54:16;;;;;;;37.45;5.40;;;;;;;14.74;100.00;101443.50;5103244;28;20547;-69
2023/09/08 02:56:42;;;;;;;19.25;3.25;;;;;;;14.76;100.00;101443.50;5103826;28;20035;-68
2023/09/08 02:59:07;;;;;;;9.52;2.80;;;;;;;14.76;100.00;101443.50;5104386;28;20086;-70
2023/09/08 03:01:33;;;;;;;35.22;5.82;;;;;;;14.76;100.00;101448.72;5102699;28;20024;-71
2023/09/08 03:03:58;;;;;;;48.40;5.10;;;;;;;14.75;100.00;101447.00;5103961;28;20456;-70
2023/09/08 03:06:24;;;;;;;13.73;4.95;;;;;;;14.76;100.00;101448.72;5103983;28;20024;-69
2023/09/08 03:08:49;;;;;;;43.08;4.95;;;;;;;14.80;100.00;101447.84;5085892;28;20024;-70
2023/09/08 03:11:14;;;;;;;20.17;4.25;;;;;;;14.86;100.00;101455.63;5103757;28;20035;-70
2023/09/08 03:13:40;;;;;;;30.40;4.45;;;;;;;14.87;100.00;101446.91;5103926;28;20027;-70
2023/09/08 03:16:07;;;;;;;64.50;6.90;;;;;;;14.92;100.00;101448.63;5103811;28;20046;-69
2023/09/08 03:18:33;;;;;;;57.83;6.18;;;;;;;14.90;100.00;101446.03;5103855;28;20020;-69
2023/09/08 03:21:08;;;;;;;61.63;6.43;;;;;;;14.89;100.00;101433.81;5103848;28;20024;-70
2023/09/08 03:23:41;;;;;;;34.25;5.18;;;;;;;14.94;100.00;101439.00;5103971;28;20023;-69
2023/09/08 03:26:08;;;;;;;20.40;4.85;;;;;;;14.97;100.00;101444.19;5103410;28;20024;-70
2023/09/08 03:28:35;;;;;;;14.38;3.55;;;;;;;14.95;100.00;101427.69;5103906;28;20475;-71
2023/09/08 03:31:02;;;;;;;17.13;3.95;;;;;;;14.92;100.00;101431.16;5085713;28;20058;-72
2023/09/08 03:33:27;;;;;;;24.63;3.50;;;;;;;14.92;100.00;101428.56;5103898;28;20016;-72
2023/09/08 03:35:52;;;;;;;5.38;3.88;;;;;;;14.89;100.00;101444.28;5103615;28;20055;-72
2023/09/08 03:38:18;;;;;;;34.45;4.43;;;;;;;14.88;100.00;101426.88;5085428;28;20473;-72
2023/09/08 03:40:43;;;;;;;14.10;2.92;;;;;;;14.89;100.00;101435.59;5103712;28;20012;-72
2023/09/08 03:43:09;;;;;;;28.55;4.90;;;;;;;14.83;100.00;101429.53;5102287;28;20024;-73
2023/09/08 03:45:34;;;;;;;18.73;3.22;;;;;;;14.83;100.00;101429.53;5102156;28;20056;-72
2023/09/08 03:47:59;;;;;;;41.33;4.93;;;;;;;14.84;100.00;101426.03;5103769;28;20081;-72
2023/09/08 03:50:25;;;;;;;46.15;6.35;;;;;;;14.84;100.00;101433.88;5103697;28;20058;-70
2023/09/08 03:52:50;;;;;;;32.20;5.25;;;;;;;14.90;100.00;101426.84;5085566;28;20555;-71
2023/09/08 03:55:16;;;;;;;11.15;2.92;;;;;;;14.95;100.00;101422.44;5103411;28;20052;-71
2023/09/08 03:57:42;;;;;;;6.13;3.20;;;;;;;14.96;100.00;101421.56;5103382;28;20049;-71
2023/09/08 04:00:10;;;;;;;32.30;3.72;;;;;;;14.90;100.00;101414.66;5085192;28;20024;-70
2023/09/08 04:02:36;;;;;;;21.10;4.80;;;;;;;14.95;100.00;101423.28;5103519;28;20035;-71
2023/09/08 04:05:01;;;;;;;19.20;3.33;;;;;;;14.99;100.00;101413.69;5103403;28;20042;-70
2023/09/08 04:07:26;;;;;;;24.67;3.67;;;;;;;14.96;100.00;101413.72;5105179;28;20047;-70
2023/09/08 04:09:52;;;;;;;13.85;3.55;;;;;;;14.95;100.00;101406.75;5106933;28;20031;-70
2023/09/08 04:12:17;;;;;;;30.02;4.93;;;;;;;14.97;100.00;101408.47;5088681;28;20028;-69
2023/09/08 04:14:43;;;;;;;34.28;3.97;;;;;;;14.98;99.95;101404.13;5107384;28;20023;-69
2023/09/08 04:17:08;;;;;;;43.88;5.65;;;;;;;15.05;99.77;101408.38;5088744;28;20111;-69
2023/09/08 04:19:33;;;;;;;56.97;5.78;;;;;;;15.04;99.76;101414.50;5107062;28;20016;-70
2023/09/08 04:21:59;;;;;;;28.05;4.95;;;;;;;15.05;99.83;101407.53;5088618;28;20023;-69
2023/09/08 04:24:24;;;;;;;34.13;3.80;;;;;;;15.03;99.33;101402.28;5088720;28;20048;-69
2023/09/08 04:26:49;;;;;;;37.20;4.15;;;;;;;15.06;99.28;101407.50;5106186;28;20023;-70
2023/09/08 04:29:15;;;;;;;22.25;4.20;;;;;;;15.06;99.10;101404.91;5106504;28;20020;-70
2023/09/08 04:31:40;;;;;;;18.67;3.80;;;;;;;14.97;99.18;101397.13;5106784;28;20016;-72
2023/09/08 04:34:05;;;;;;;19.65;3.42;;;;;;;14.97;99.12;101397.13;5106817;28;20052;-71
2023/09/08 04:36:31;;;;;;;21.60;3.53;;;;;;;14.93;99.27;101396.31;5106521;28;20020;-70
2023/09/08 04:38:56;;;;;;;84.00;5.95;;;;;;;14.91;99.25;101395.47;5105642;28;20024;-71
2023/09/08 04:41:22;;;;;;;22.75;2.90;;;;;;;14.94;99.31;101397.16;5088466;28;20028;-71
2023/09/08 04:43:47;;;;;;;13.75;3.60;;;;;;;14.90;99.15;101398.09;5106808;28;20032;-67
2023/09/08 04:46:12;;;;;;;20.00;3.85;;;;;;;14.87;99.34;101394.63;5106549;28;20020;-71
2023/09/08 04:48:38;;;;;;;36.63;3.80;;;;;;;14.87;99.24;101386.78;5106839;28;20388;-69
2023/09/08 04:51:03;;;;;;;12.75;3.17;;;;;;;14.87;99.07;101399.84;5106676;28;20028;-68
2023/09/08 04:53:28;;;;;;;12.02;2.50;;;;;;;14.86;99.35;101392.91;5106266;28;20262;-72
2023/09/08 04:55:54;;;;;;;27.52;3.55;;;;;;;14.89;99.17;101391.16;5106380;28;20433;-70
2023/09/08 04:58:19;;;;;;;39.50;4.85;;;;;;;14.88;99.25;101392.88;5106149;28;20024;-63
2023/09/08 05:00:44;;;;;;;7.38;3.30;;;;;;;14.94;99.05;101400.66;5106402;28;20031;-64
2023/09/08 05:03:10;;;;;;;13.15;4.65;;;;;;;14.96;99.04;101400.63;5106480;28;20024;-65
2023/09/08 05:05:35;;;;;;;43.90;5.22;;;;;;;15.01;99.04;101404.06;5087337;28;20445;-65
2023/09/08 05:08:02;;;;;;;24.35;3.53;;;;;;;15.01;99.04;101401.47;5106396;28;20016;-66
2023/09/08 05:10:27;;;;;;;19.45;3.53;;;;;;;15.05;99.10;101402.31;5106331;28;20020;-65
2023/09/08 05:12:53;;;;;;;25.27;3.83;;;;;;;15.09;99.10;101404.88;5106121;28;20404;-64
2023/09/08 05:15:20;;;;;;;22.15;3.40;;;;;;;15.12;98.73;101409.19;5106036;28;20043;-67
2023/09/08 05:17:46;;;;;;;17.48;3.80;;;;;;;15.15;98.77;101408.28;5105745;28;20099;-65
2023/09/08 05:20:12;;;;;;;12.43;2.75;;;;;;;15.14;98.69;101417.88;5105903;28;20027;-76
2023/09/08 05:22:37;;;;;;;7.82;3.08;;;;;;;15.13;98.72;101404.81;5105933;28;20020;-65
2023/09/08 05:25:03;;;;;;;2.65;2.42;;;;;;;15.08;98.57;101405.72;5105750;28;20020;-74
2023/09/08 05:27:28;;;;;;;40.53;4.72;;;;;;;15.10;98.45;101403.97;5105778;28;20020;-66
2023/09/08 05:29:54;;;;;;;5.97;3.65;;;;;;;15.12;98.91;101409.19;5105944;28;20024;-65
2023/09/08 05:32:19;;;;;;;7.50;3.60;;;;;;;15.09;98.75;101402.25;5105658;28;20403;-65
2023/09/08 05:34:44;;;;;;;18.88;4.32;;;;;;;15.08;98.93;101408.34;5105478;28;20112;-65
2023/09/08 05:37:10;;;;;;;28.63;4.60;;;;;;;15.06;98.92;101398.78;5103961;28;20039;-64
2023/09/08 05:39:35;;;;;;;4.63;2.88;;;;;;;15.14;99.07;101407.41;5105438;28;20024;-64
2023/09/08 05:42:01;;;;;;;15.38;3.67;;;;;;;15.16;99.01;101404.78;5105276;28;20104;-64
2023/09/08 05:44:26;;;;;;;6.07;3.65;;;;;;;15.16;98.96;101410.03;5105134;28;20028;-63
2023/09/08 05:46:51;;;;;;;21.02;4.18;;;;;;;15.13;98.97;101402.22;5104124;28;20028;-65
2023/09/08 05:49:17;;;;;;;23.35;4.45;;;;;;;15.14;99.21;101411.78;5105705;28;20024;-65
2023/09/08 05:51:43;;;;;;;23.13;5.07;;;;;;;15.15;99.37;101397.81;5105528;28;20023;-64
2023/09/08 05:54:09;;;;;;;20.88;3.83;;;;;;;15.18;99.33;101401.25;5105235;28;20036;-64
2023/09/08 05:56:34;;;;;;;9.13;3.92;;;;;;;15.18;99.03;101398.66;5105180;28;20055;-65
2023/09/08 05:59:01;;;;;;;13.52;4.07;;;;;;;15.22;99.56;101391.63;5105539;28;20024;-64
2023/09/08 06:01:26;;;;;;;12.68;3.08;;;;;;;15.23;99.10;101391.63;5105612;28;20425;-65
2023/09/08 06:03:52;;;;;;;12.02;3.97;;;;;;;15.20;98.79;101385.53;5105356;28;20468;-64
2023/09/08 06:06:17;;;;;;;4.10;2.92;;;;;;;15.18;99.07;101390.81;5105258;28;20134;-65
2023/09/08 06:08:42;;;;;;;72.95;6.88;;;;;;;15.18;99.31;101390.81;5105316;28;20439;-64
2023/09/08 06:11:08;;;;;;;37.40;4.15;;;;;;;15.21;99.11;101395.13;5105103;28;20020;-64
2023/09/08 06:13:33;;;;;;;21.10;4.88;;;;;;;15.22;99.33;101397.72;5105169;28;20058;-65
2023/09/08 06:15:58;;;;;;;9.50;3.45;;;;;;;15.25;99.25;101394.22;5104963;28;20028;-64
2023/09/08 06:18:24;;;;;;;7.53;4.50;;;;;;;15.20;99.61;101377.69;5105272;28;20020;-64
2023/09/08 06:20:49;;;;;;;5.55;3.85;;;;;;;15.32;99.36;101389.78;5105013;28;20020;-64
2023/09/08 06:23:15;;;;;;;27.75;4.03;;;;;;;15.34;99.14;101383.63;5105198;28;20048;-64
2023/09/08 06:25:40;;;;;;;36.10;5.00;;;;;;;15.28;99.20;101386.31;5104887;28;20043;-64
2023/09/08 06:28:06;;;;;;;17.23;4.18;;;;;;;15.32;99.44;101390.63;5104829;28;20486;-63
2023/09/08 06:30:31;;;;;;;27.48;4.38;;;;;;;15.36;99.65;101392.34;5086056;28;20028;-64
2023/09/08 06:32:57;;;;;;;16.17;3.47;;;;;;;15.44;99.64;101393.97;5104939;28;20043;-63
2023/09/08 06:35:22;;;;;;;38.55;5.45;;;;;;;15.43;99.06;101392.25;5105124;28;20027;-65
2023/09/08 06:37:47;;;;;;;8.45;3.17;;;;;;;15.37;98.80;101387.94;5105084;28;20036;-65
2023/09/08 06:40:13;;;;;;;11.40;3.67;;;;;;;15.36;98.92;101388.84;5104674;28;20034;-64
2023/09/08 06:42:38;;;;;;;17.83;4.65;;;;;;;15.29;99.65;101381.97;5104634;28;20400;-64
2023/09/08 06:45:04;;;;;;;6.68;3.47;;;;;;;15.30;99.52;101381.94;5103292;28;20087;-65
2023/09/08 06:47:29;;;;;;;12.82;3.90;;;;;;;15.31;99.42;101377.56;5104697;28;20020;-65
2023/09/08 06:49:54;;;;;;;7.30;3.10;;;;;;;15.31;99.78;101385.41;5104801;28;20028;-64
2023/09/08 06:52:20;;;;;;;5.60;3.10;;;;;;;15.26;99.60;101382.84;5104573;28;20079;-64
2023/09/08 06:54:45;;;;;;;9.82;3.97;;;;;;;15.23;99.67;101383.78;5104669;28;20063;-63
2023/09/08 06:57:12;;;;;;;39.63;4.95;;;;;;;15.22;99.65;101381.16;5104274;28;20020;-64
2023/09/08 06:59:37;;;;;;;28.55;3.70;;;;;;;15.25;99.83;101373.28;5104667;28;20301;-64
2023/09/08 07:02:04;;;;;;;21.42;3.38;;;;;;;15.27;99.82;101374.09;5104482;28;20024;-64
2023/09/08 07:04:29;;;;;;;9.85;3.58;;;;;;;15.21;99.73;101366.34;5104540;28;20030;-64
2023/09/08 07:06:55;;;;;;;15.60;3.08;;;;;;;15.24;99.83;101375.03;5104633;28;20020;-64
2023/09/08 07:09:20;;;;;;;5.38;4.15;;;;;;;15.28;99.92;101372.38;5105153;28;20020;-65
2023/09/08 07:11:46;;;;;;;6.60;3.15;;;;;;;15.40;100.00;101377.44;5103555;28;20028;-64
2023/09/08 07:14:12;;;;;;;19.13;3.03;;;;;;;15.39;99.74;101360.03;5086671;28;20016;-64
2023/09/08 07:16:37;;;;;;;20.88;3.80;;;;;;;15.39;99.67;101359.16;5104626;28;20435;-64
2023/09/08 07:19:03;;;;;;;8.88;3.28;;;;;;;15.45;100.00;101369.53;5112131;28;20020;-64
2023/09/08 07:21:28;;;;;;;14.05;3.75;;;;;;;15.45;99.54;101359.94;5105358;28;20050;-64
2023/09/08 07:23:53;;;;;;;18.15;3.40;;;;;;;15.44;99.47;101357.34;5104471;28;20050;-64
2023/09/08 07:26:19;;;;;;;5.45;3.45;;;;;;;15.52;99.87;101360.72;5102483;28;20052;-63
2023/09/08 07:28:45;;;;;;;15.40;4.50;;;;;;;15.60;99.88;101361.50;5104491;28;20047;-63
2023/09/08 07:31:10;;;;;;;12.55;4.47;;;;;;;15.72;99.99;101362.16;5104417;28;20020;-64
2023/09/08 07:33:36;;;;;;;6.05;3.13;;;;;;;15.79;99.92;101355.97;5104211;28;20042;-64
2023/09/08 07:36:05;;;;;;;4.47;3.55;;;;;;;15.81;99.06;101355.94;5104122;28;20083;-64
2023/09/08 07:38:31;;;;;;;6.72;2.97;;;;;;;15.69;98.17;101351.75;5104109;28;20063;-65
2023/09/08 07:40:57;;;;;;;4.20;2.00;;;;;;;15.64;98.37;101354.44;5104793;28;20392;-64
2023/09/08 07:43:22;;;;;;;9.40;4.05;;;;;;;15.58;97.51;101360.63;5107908;28;20027;-64
2023/09/08 07:45:47;;;;;;;15.18;4.45;;;;;;;15.58;98.35;101350.16;5107908;28;20082;-64
2023/09/08 07:48:13;;;;;;;12.38;4.07;;;;;;;15.63;98.43;101349.22;5108018;28;20019;-64
2023/09/08 07:50:38;;;;;;;6.90;3.85;;;;;;;15.69;98.79;101357.84;5108024;28;20020;-64
2023/09/08 07:53:03;;;;;;;14.35;4.75;;;;;;;15.74;97.79;101355.16;5107845;28;20066;-64
2023/09/08 07:55:29;;;;;;;6.25;3.45;;;;;;;15.75;98.38;101349.03;5107795;28;20012;-64
2023/09/08 07:57:55;;;;;;;6.35;3.80;;;;;;;15.77;98.59;101349.88;5107636;28;20035;-65
2023/09/08 08:00:21;;;;;;;4.72;3.83;;;;;;;15.87;98.29;101348.00;5107815;28;20031;-65
2023/09/08 08:02:48;;;;;;;5.93;4.28;;;;;;;15.93;98.91;101344.41;5107969;28;20020;-64
2023/09/08 08:05:13;;;;;;;6.85;4.15;;;;;;;16.04;99.11;101345.13;5107755;28;20024;-65
2023/09/08 08:07:40;;;;;;;5.30;3.28;;;;;;;16.08;98.30;101343.34;5107649;28;20024;-64
2023/09/08 08:10:09;;;;;;;31.05;4.55;;;;;;;15.95;97.34;101324.31;5107665;28;20031;-64
2023/09/08 08:12:35;;;;;;;4.85;3.35;;;;;;;16.00;97.95;101340.84;5107454;28;20067;-64
2023/09/08 08:15:01;;;;;;;6.03;4.25;;;;;;;15.98;97.44;101335.63;5089423;28;20533;-64
2023/09/08 08:17:27;;;;;;;5.63;3.85;;;;;;;15.99;96.82;101339.09;5107535;28;20020;-64
2023/09/08 08:19:54;;;;;;;9.02;4.55;;;;;;;16.00;97.09;101333.00;5107592;28;20028;-65
2023/09/08 08:22:20;;;;;;;9.90;3.38;;;;;;;16.07;97.19;101339.00;5089243;28;20031;-64
2023/09/08 08:24:45;;;;;;;4.25;3.08;;;;;;;16.04;96.88;101334.66;5107459;28;20028;-65
2023/09/08 08:27:11;;;;;;;6.38;4.47;;;;;;;16.02;97.39;101333.84;5105979;28;20032;-64
2023/09/08 08:29:36;;;;;;;15.55;4.45;;;;;;;16.10;97.54;101331.94;5107350;28;20030;-66
2023/09/08 08:32:02;;;;;;;8.07;4.47;;;;;;;16.26;97.79;101336.94;5107233;28;20079;-66
2023/09/08 08:34:28;;;;;;;9.88;5.45;;;;;;;16.30;96.77;101328.13;5107320;28;20302;-65
2023/09/08 08:36:53;;;;;;;6.20;4.05;;;;;;;16.38;97.04;101321.88;5107115;28;20016;-65
2023/09/08 08:39:19;;;;;;;3.75;3.30;;;;;;;16.46;96.61;101318.22;5107102;28;20030;-66
2023/09/08 08:41:44;;;;;;;4.10;3.70;;;;;;;16.54;96.88;101323.31;5106856;28;20079;-64
2023/09/08 08:44:10;;;;;;;9.60;5.28;;;;;;;16.60;96.80;101317.97;5106847;28;20047;-65
2023/09/08 08:46:36;;;;;;;7.63;4.05;;;;;;;16.80;96.78;101313.22;5106845;28;20027;-64
2023/09/08 08:49:05;;;;;;;7.40;4.43;;;;;;;16.87;95.59;101306.94;5106909;28;20051;-64
2023/09/08 08:51:32;;;;;;;5.50;4.28;;;;;;;17.04;96.45;101316.25;5106997;28;20031;-65
2023/09/08 08:53:57;;;;;;;6.22;4.30;;;;;;;17.17;95.38;101314.25;5105724;28;20094;-65
2023/09/08 08:56:23;;;;;;;6.45;4.55;;;;;;;17.42;96.61;101318.94;5105119;28;20016;-65
2023/09/08 08:58:49;;;;;;;5.50;4.10;;;;;;;18.06;96.58;101309.56;5106827;28;20265;-67
2023/09/08 09:01:19;;;;;;;8.50;4.55;;;;;;;19.15;95.49;101311.03;5106690;28;20050;-67
2023/09/08 09:03:48;;;;;;;7.82;5.20;;;;;;;19.99;92.35;101312.78;5106604;28;20049;-68
2023/09/08 09:06:14;;;;;;;11.00;3.92;;;;;;;20.76;90.97;101306.63;5106451;28;20257;-66
2023/09/08 09:08:43;;;;;;;4.78;4.03;;;;;;;21.61;86.87;101306.94;5088231;28;20387;-67
2023/09/08 09:11:08;;;;;;;4.30;3.63;;;;;;;22.35;81.71;101301.25;5106287;28;20020;-67
2023/09/08 09:13:34;;;;;;;4.82;4.13;;;;;;;22.73;80.29;101306.63;5087899;28;20111;-68
2023/09/08 09:16:03;;;;;;;3.75;2.63;;;;;;;23.21;81.13;101311.47;5106201;28;20118;-68
2023/09/08 09:18:30;;;;;;;6.70;3.50;;;;;;;23.78;76.85;101312.34;5106453;28;20035;-68
2023/09/08 09:20:58;;;;;;;4.03;2.83;;;;;;;23.80;75.64;101304.31;5088019;28;20026;-70
2023/09/08 09:23:41;;;;;;;3.97;3.33;;;;;;;24.01;76.21;101300.56;5106484;28;20024;-70
2023/09/08 09:26:06;;;;;;;3.38;2.90;;;;;;;24.46;72.57;101300.06;5105975;28;20028;-71
2023/09/08 09:28:32;;;;;;;4.05;2.80;;;;;;;24.32;72.07;101286.66;5105844;28;20028;-71
2023/09/08 09:30:58;;;;;;;3.97;3.03;;;;;;;24.48;74.35;101297.31;5106111;28;20024;-71
2023/09/08 09:33:24;;;;;;;3.50;2.35;;;;;;;24.85;69.92;101294.47;5105946;28;20088;-71
2023/09/08 09:35:54;;;;;;;4.15;2.65;;;;;;;24.59;69.74;101287.00;5105834;28;20016;-70
2023/09/08 09:38:20;;;;;;;5.10;2.22;;;;;;;24.24;65.85;101285.28;5087449;28;20016;-71
2023/09/08 09:40:47;;;;;;;2.58;2.35;;;;;;;23.75;66.33;101283.34;5105721;28;20108;-72
2023/09/08 09:43:14;;;;;;;3.25;2.45;;;;;;;23.68;68.07;101281.91;5105613;28;20044;-70
2023/09/08 09:45:40;;;;;;;4.55;2.30;;;;;;;24.23;69.98;101286.19;5087068;28;20023;-71
2023/09/08 09:48:07;;;;;;;4.10;2.28;;;;;;;24.79;65.55;101273.56;5105742;28;20510;-71
2023/09/08 09:50:35;;;;;;;2.60;2.40;;;;;;;24.63;66.65;101275.25;5105721;28;20028;-72
2023/09/08 09:53:07;;;;;;;3.33;2.38;;;;;;;24.67;66.88;101265.34;5105310;28;20034;-71
2023/09/08 09:55:33;;;;;;;;;;;;;;;24.56;66.61;101273.88;5105947;28;20592;-71
2023/09/08 09:58:00;;;;;;;3.20;2.35;;;;;;;24.60;67.82;101269.28;5105242;28;20360;-71
2023/09/08 10:00:27;;;;;;;2.85;2.35;;;;;;;25.20;68.42;101272.22;5087187;28;20096;-70
2023/09/08 10:02:56;;;;;;;6.97;2.63;;;;;;;25.74;67.84;101263.81;5087050;28;20035;-70
2023/09/08 10:05:23;;;;;;;6.60;3.13;;;;;;;26.61;68.29;101252.38;5105246;28;20339;-71
2023/09/08 10:07:49;;;;;;;3.13;2.60;;;;;;;27.27;66.36;101258.06;5105311;28;20016;-70
2023/09/08 10:10:16;;;;;;;2.45;2.22;;;;;;;27.24;66.30;101259.09;5087088;28;20035;-71
2023/09/08 10:12:46;;;;;;;2.33;2.03;;;;;;;27.32;65.35;101254.13;5104893;28;20546;-71
2023/09/08 10:15:12;;;;;;;2.60;1.95;;;;;;;27.18;66.40;101247.03;5105181;28;20027;-73
2023/09/08 10:17:40;;;;;;;2.45;2.08;;;;;;;27.41;66.63;101247.31;5086885;28;20042;-72
2023/09/08 10:20:10;;;;;;;4.18;2.30;;;;;;;27.92;65.51;101245.72;5105059;28;20244;-69
2023/09/08 10:22:38;;;;;;;3.85;1.75;;;;;;;28.23;59.66;101247.19;5105138;28;20016;-70
2023/09/08 10:25:06;;;;;;;3.88;2.22;;;;;;;27.87;60.88;101249.66;5105001;28;20024;-71
2023/09/08 10:27:32;;;;;;;2.38;1.98;;;;;;;27.70;58.89;101243.69;5104616;28;20028;-71
2023/09/08 10:30:01;;;;;;;1.88;1.70;;;;;;;27.45;60.99;101248.81;5086796;28;20091;-69
2023/09/08 10:32:27;;;;;;;1.98;1.73;;;;;;;27.52;60.55;101254.59;5104773;28;20027;-71
2023/09/08 10:34:54;;;;;;;5.07;2.15;;;;;;;27.05;57.85;101254.13;5104654;28;20032;-69
2023/09/08 10:37:29;;;;;;;1.95;1.73;;;;;;;26.28;57.83;101244.69;5086489;28;20024;-71
2023/09/08 10:39:55;;;;;;;1.55;1.45;;;;;;;25.94;60.68;101252.94;5104876;28;20482;-70
2023/09/08 10:42:22;;;;;;;2.45;1.88;;;;;;;26.17;59.55;101250.66;5104480;28;20020;-69
2023/09/08 10:44:47;;;;;;;3.30;2.20;;;;;;;26.14;57.01;101251.72;5104746;28;20024;-70
2023/09/08 10:47:12;;;;;;;2.63;1.83;;;;;;;25.91;56.19;101255.78;5104682;28;20024;-70
2023/09/08 10:49:38;;;;;;;3.08;1.33;;;;;;;25.66;57.99;101250.13;5104811;28;20542;-72
2023/09/08 10:52:12;;;;;;;2.53;1.70;;;;;;;26.09;57.75;101243.16;5104493;28;20024;-71
2023/09/08 10:54:49;;;;;;;3.35;1.73;;;;;;;26.48;56.92;101241.66;5104321;28;20050;-72
2023/09/08 10:57:17;;;;;;;2.00;1.83;;;;;;;26.77;56.62;101232.78;5086121;28;20085;-72
2023/09/08 10:59:52;;;;;;;1.75;1.48;;;;;;;26.60;55.34;101229.38;5104410;28;20024;-72
2023/09/08 11:02:38;;;;;;;2.25;1.50;;;;;;;26.39;54.01;101234.25;5086053;28;20096;-72
2023/09/08 11:05:06;;;;;;;3.08;1.70;;;;;;;25.85;53.29;101223.28;5104389;28;20031;-72
2023/09/08 11:07:32;;;;;;;1.75;1.35;;;;;;;25.65;53.34;101234.25;5104194;28;20652;-71
2023/09/08 11:09:57;;;;;;;1.40;1.30;;;;;;;25.59;52.46;101225.66;5104200;28;20476;-72
2023/09/08 11:12:27;;;;;;;2.42;1.83;;;;;;;25.59;52.89;101225.66;5103861;28;20023;-71
2023/09/08 11:14:52;;;;;;;2.17;1.65;;;;;;;25.67;53.44;101227.06;5104196;28;20020;-71
2023/09/08 11:17:18;;;;;;;2.40;1.33;;;;;;;26.04;52.66;101221.31;5107287;28;20546;-71